createdAt,value
2023-03-28T00:02:00.312Z,7.67
2023-03-28T00:04:05.452Z,7.65
2023-03-28T00:06:11.750Z,7.66
2023-03-28T00:08:15.860Z,7.65
2023-03-28T00:10:20.195Z,7.66
2023-03-28T00:12:25.326Z,7.65
2023-03-28T00:14:29.211Z,7.66
2023-03-28T00:16:36.604Z,7.65
2023-03-28T00:18:40.922Z,7.63
2023-03-28T00:20:45.247Z,7.66
2023-03-28T00:22:49.873Z,7.66
2023-03-28T00:24:53.946Z,7.66
2023-03-28T00:27:00.989Z,7.65
2023-03-28T00:29:06.636Z,7.66
2023-03-28T00:31:10.642Z,7.65
2023-03-28T00:33:16.343Z,7.67
2023-03-28T00:35:20.284Z,7.68
2023-03-28T00:37:24.546Z,7.69
2023-03-28T00:39:29.804Z,7.69
2023-03-28T00:41:37.028Z,7.68
2023-03-28T00:43:42.328Z,7.69
2023-03-28T00:45:53.147Z,7.67
2023-03-28T00:48:06.941Z,7.67
2023-03-28T00:50:25.466Z,7.68
2023-03-28T00:52:33.806Z,7.67
2023-03-28T00:54:40.576Z,7.67
2023-03-28T00:56:47.540Z,7.68
2023-03-28T00:58:52.934Z,7.69
2023-03-28T01:00:58.282Z,7.70
2023-03-28T01:03:03.785Z,7.73
2023-03-28T01:05:09.213Z,7.75
2023-03-28T01:07:16.477Z,7.78
2023-03-28T01:09:21.970Z,7.78
2023-03-28T01:11:28.481Z,7.81
2023-03-28T01:13:35.259Z,7.81
2023-03-28T01:15:40.058Z,7.83
2023-03-28T01:17:46.567Z,7.84
2023-03-28T01:20:06.551Z,7.85
2023-03-28T01:22:40.598Z,7.86
2023-03-28T01:25:25.787Z,7.89
2023-03-28T01:27:38.588Z,7.89
2023-03-28T01:30:14.403Z,7.90
2023-03-28T01:33:32.067Z,7.92
2023-03-28T01:36:07.365Z,7.93
2023-03-28T01:38:18.522Z,7.94
2023-03-28T01:40:34.938Z,7.93
2023-03-28T01:42:53.220Z,7.92
2023-03-28T01:45:08.981Z,7.92
2023-03-28T01:47:21.408Z,7.93
2023-03-28T01:49:34.564Z,7.92
2023-03-28T01:51:52.162Z,7.93
2023-03-28T01:54:01.906Z,7.91
2023-03-28T01:56:12.463Z,7.91
2023-03-28T01:58:22.205Z,7.90
2023-03-28T02:00:33.283Z,7.91
2023-03-28T02:02:49.739Z,7.89
2023-03-28T02:05:10.729Z,7.87
2023-03-28T02:07:24.779Z,7.87
2023-03-28T02:09:46.314Z,7.86
2023-03-28T02:12:15.246Z,7.86
2023-03-28T02:14:42.579Z,7.85
2023-03-28T02:17:15.574Z,7.79
2023-03-28T02:19:40.193Z,7.75
2023-03-28T02:22:04.608Z,7.75
2023-03-28T02:24:20.202Z,7.72
2023-03-28T02:26:49.329Z,7.66
2023-03-28T02:29:14.179Z,7.67
2023-03-28T02:31:33.634Z,7.65
2023-03-28T02:33:41.122Z,7.63
2023-03-28T02:35:55.615Z,7.56
2023-03-28T02:38:09.000Z,7.50
2023-03-28T02:40:31.553Z,7.41
2023-03-28T02:43:14.558Z,7.36
2023-03-28T02:45:50.642Z,7.31
2023-03-28T02:48:06.633Z,7.27
2023-03-28T02:50:21.063Z,7.24
2023-03-28T02:52:37.102Z,7.23
2023-03-28T02:54:47.821Z,7.26
2023-03-28T02:57:18.424Z,7.26
2023-03-28T02:59:35.977Z,7.25
2023-03-28T03:01:41.089Z,7.24
2023-03-28T03:03:45.986Z,7.27
2023-03-28T03:05:49.480Z,7.27
2023-03-28T03:07:52.822Z,7.31
2023-03-28T03:09:56.242Z,7.33
2023-03-28T03:11:59.925Z,7.36
2023-03-28T03:14:03.187Z,7.37
2023-03-28T03:16:09.232Z,7.39
2023-03-28T03:18:13.163Z,7.41
2023-03-28T03:20:16.515Z,7.41
2023-03-28T03:22:21.246Z,7.42
2023-03-28T03:24:28.459Z,7.44
2023-03-28T03:26:36.273Z,7.46
2023-03-28T03:28:41.224Z,7.49
2023-03-28T03:30:45.977Z,7.50
2023-03-28T03:32:50.718Z,7.51
2023-03-28T03:34:54.368Z,7.52
2023-03-28T03:36:57.711Z,7.52
2023-03-28T03:39:01.644Z,7.51
2023-03-28T03:41:06.668Z,7.51
2023-03-28T03:43:09.997Z,7.52
2023-03-28T03:45:15.933Z,7.53
2023-03-28T03:47:20.183Z,7.55
2023-03-28T03:49:27.697Z,7.58
2023-03-28T03:51:31.108Z,7.59
2023-03-28T03:53:35.882Z,7.61
2023-03-28T03:55:48.982Z,7.62
2023-03-28T03:57:52.707Z,7.63
2023-03-28T03:59:57.349Z,7.66
2023-03-28T04:02:03.299Z,7.66
2023-03-28T04:04:18.793Z,7.65
2023-03-28T04:06:42.182Z,7.63
2023-03-28T04:08:46.731Z,7.60
2023-03-28T04:10:57.423Z,7.58
2023-03-28T04:13:01.209Z,7.57
2023-03-28T04:15:05.424Z,7.56
2023-03-28T04:17:08.753Z,7.53
2023-03-28T04:19:14.001Z,7.51
2023-03-28T04:21:20.685Z,7.50
2023-03-28T04:23:26.072Z,7.49
2023-03-28T04:25:31.573Z,7.49
2023-03-28T04:27:42.036Z,7.46
2023-03-28T04:29:45.337Z,7.44
2023-03-28T04:32:07.814Z,7.42
2023-03-28T04:34:30.917Z,7.37
2023-03-28T04:36:43.875Z,7.31
2023-03-28T04:38:49.292Z,7.25
2023-03-28T04:41:16.994Z,7.20
2023-03-28T04:43:33.079Z,7.14
2023-03-28T04:45:37.215Z,7.09
2023-03-28T04:47:50.025Z,7.04
2023-03-28T04:49:55.444Z,7.01
2023-03-28T04:51:58.849Z,6.98
2023-03-28T04:54:03.727Z,6.95
2023-03-28T04:56:22.305Z,6.93
2023-03-28T04:58:26.562Z,6.93
2023-03-28T05:00:30.749Z,6.91
2023-03-28T05:02:40.025Z,6.91
2023-03-28T05:04:44.365Z,6.91
2023-03-28T05:06:51.741Z,6.91
2023-03-28T05:08:55.073Z,6.89
2023-03-28T05:11:04.531Z,6.90
2023-03-28T05:13:08.555Z,6.92
2023-03-28T05:15:23.004Z,6.94
2023-03-28T05:17:37.610Z,6.94
2023-03-28T05:19:53.597Z,6.95
2023-03-28T05:21:59.390Z,6.98
2023-03-28T05:24:02.909Z,7.00
2023-03-28T05:26:08.246Z,7.03
2023-03-28T05:28:14.586Z,7.03
2023-03-28T05:30:26.438Z,7.04
2023-03-28T05:32:32.191Z,7.06
2023-03-28T05:34:36.220Z,7.09
2023-03-28T05:36:40.510Z,7.13
2023-03-28T05:38:54.556Z,7.17
2023-03-28T05:40:58.788Z,7.24
2023-03-28T05:43:03.898Z,7.28
2023-03-28T05:45:09.345Z,7.35
2023-03-28T05:47:31.524Z,7.37
2023-03-28T05:49:35.144Z,7.36
2023-03-28T05:51:38.547Z,7.40
2023-03-28T05:53:41.971Z,7.45
2023-03-28T05:55:46.848Z,7.50
2023-03-28T05:57:50.149Z,7.52
2023-03-28T05:59:56.943Z,7.56
2023-03-28T06:02:01.727Z,7.57
2023-03-28T06:04:05.797Z,7.57
2023-03-28T06:06:09.912Z,7.57
2023-03-28T06:08:13.444Z,7.59
2023-03-28T06:10:17.182Z,7.61
2023-03-28T06:12:32.463Z,7.60
2023-03-28T06:14:37.884Z,7.59
2023-03-28T06:16:45.031Z,7.57
2023-03-28T06:18:48.481Z,7.58
2023-03-28T06:20:51.913Z,7.59
2023-03-28T06:22:55.180Z,7.57
2023-03-28T06:24:58.716Z,7.55
2023-03-28T06:27:08.477Z,7.52
2023-03-28T06:29:16.294Z,7.48
2023-03-28T06:31:20.998Z,7.42
2023-03-28T06:33:26.939Z,7.39
2023-03-28T06:35:30.345Z,7.32
2023-03-28T06:37:33.679Z,7.29
2023-03-28T06:39:43.393Z,7.26
2023-03-28T06:41:46.659Z,7.20
2023-03-28T06:43:49.992Z,7.16
2023-03-28T06:46:12.030Z,7.14
2023-03-28T06:48:20.574Z,7.11
2023-03-28T06:50:57.427Z,7.14
2023-03-28T06:53:01.471Z,7.15
2023-03-28T06:55:05.755Z,7.15
2023-03-28T06:57:09.184Z,7.15
2023-03-28T06:59:16.124Z,7.15
2023-03-28T07:01:22.119Z,7.14
2023-03-28T07:03:30.730Z,7.13
2023-03-28T07:05:39.508Z,7.14
2023-03-28T07:07:44.559Z,7.16
2023-03-28T07:09:49.999Z,7.17
2023-03-28T07:11:53.599Z,7.20
2023-03-28T07:13:59.133Z,7.22
2023-03-28T07:16:05.452Z,7.23
2023-03-28T07:18:10.731Z,7.24
2023-03-28T07:20:15.154Z,7.25
2023-03-28T07:22:18.963Z,7.25
2023-03-28T07:24:24.427Z,7.26
2023-03-28T07:26:48.244Z,7.31
2023-03-28T07:28:53.972Z,7.32
2023-03-28T07:30:57.691Z,7.32
2023-03-28T07:33:14.149Z,7.33
2023-03-28T07:35:22.843Z,7.36
2023-03-28T07:37:28.390Z,7.39
2023-03-28T07:39:54.803Z,7.41
2023-03-28T07:42:01.007Z,7.44
2023-03-28T07:44:05.498Z,7.50
2023-03-28T07:46:10.976Z,7.53
2023-03-28T07:48:14.773Z,7.56
2023-03-28T07:50:19.371Z,7.58
2023-03-28T07:52:23.052Z,7.63
2023-03-28T07:54:27.661Z,7.70
2023-03-28T07:56:33.922Z,7.75
2023-03-28T07:59:02.165Z,7.81
2023-03-28T08:01:07.466Z,7.91
2023-03-28T08:03:21.076Z,7.96
2023-03-28T08:05:26.615Z,8.01
2023-03-28T08:07:30.459Z,8.04
2023-03-28T08:09:34.178Z,8.06
2023-03-28T08:11:59.354Z,8.09
2023-03-28T08:14:02.729Z,8.10
2023-03-28T08:16:08.167Z,8.16
2023-03-28T08:18:13.122Z,8.23
2023-03-28T08:20:17.119Z,8.28
2023-03-28T08:22:35.219Z,8.37
2023-03-28T08:25:02.034Z,8.43
2023-03-28T08:27:07.844Z,8.47
2023-03-28T08:29:11.796Z,8.53
2023-03-28T08:31:17.595Z,8.56
2023-03-28T08:33:27.468Z,8.63
2023-03-28T08:35:31.301Z,8.69
2023-03-28T08:37:38.719Z,8.77
2023-03-28T08:39:43.121Z,8.86
2023-03-28T08:42:26.431Z,8.95
2023-03-28T08:44:51.799Z,9.03
2023-03-28T08:46:59.544Z,9.09
2023-03-28T08:49:12.028Z,9.12
2023-03-28T08:51:22.084Z,9.18
2023-03-28T08:53:34.477Z,9.21
2023-03-28T08:55:42.219Z,9.24
2023-03-28T08:57:48.378Z,9.28
2023-03-28T09:00:01.528Z,9.35
2023-03-28T09:02:17.336Z,9.42
2023-03-28T09:04:27.309Z,9.51
2023-03-28T09:06:46.224Z,9.59
2023-03-28T09:09:14.878Z,9.67
2023-03-28T09:11:32.302Z,9.75
2023-03-28T09:13:44.426Z,9.81
2023-03-28T09:16:04.354Z,9.87
2023-03-28T09:18:31.066Z,9.97
2023-03-28T09:20:43.318Z,10.13
2023-03-28T09:23:15.623Z,10.30
2023-03-28T09:25:45.129Z,10.50
2023-03-28T09:27:57.928Z,10.72
2023-03-28T09:30:19.063Z,11.01
2023-03-28T09:32:27.889Z,11.22
2023-03-28T09:34:39.799Z,11.33
2023-03-28T09:36:49.683Z,11.42
2023-03-28T09:39:01.049Z,11.66
2023-03-28T09:41:21.637Z,11.91
2023-03-28T09:43:32.785Z,12.14
2023-03-28T09:46:03.638Z,12.39
2023-03-28T09:48:35.780Z,12.58
2023-03-28T09:50:43.338Z,12.66
2023-03-28T09:52:51.325Z,12.76
2023-03-28T09:54:55.345Z,12.79
2023-03-28T09:57:02.718Z,12.80
2023-03-28T09:59:33.327Z,12.88
2023-03-28T10:01:48.359Z,12.94
2023-03-28T10:04:14.722Z,13.08
2023-03-28T10:06:45.840Z,13.26
2023-03-28T10:08:49.440Z,13.37
2023-03-28T10:11:07.062Z,13.53
2023-03-28T10:13:12.194Z,13.65
2023-03-28T10:15:43.474Z,13.80
2023-03-28T10:17:57.518Z,13.93
2023-03-28T10:20:17.206Z,13.97
2023-03-28T10:22:26.678Z,14.09
2023-03-28T10:24:33.028Z,14.18
2023-03-28T10:26:38.883Z,14.12
2023-03-28T10:28:44.703Z,13.87
2023-03-28T10:30:55.124Z,13.61
2023-03-28T10:33:22.322Z,13.56
2023-03-28T10:35:58.830Z,13.60
2023-03-28T10:38:04.938Z,13.42
2023-03-28T10:40:54.254Z,13.29
2023-03-28T10:43:14.748Z,13.12
2023-03-28T10:45:57.029Z,12.53
2023-03-28T10:48:16.672Z,12.17
2023-03-28T10:50:30.968Z,11.83
2023-03-28T10:52:39.795Z,11.59
2023-03-28T10:54:54.008Z,11.45
2023-03-28T10:57:20.920Z,11.50
2023-03-28T10:59:47.310Z,11.66
2023-03-28T11:02:08.906Z,11.88
2023-03-28T11:04:25.603Z,11.93
2023-03-28T11:06:36.475Z,11.95
2023-03-28T11:08:55.072Z,12.00
2023-03-28T11:11:14.509Z,12.26
2023-03-28T11:13:31.916Z,12.47
2023-03-28T11:15:41.841Z,12.72
2023-03-28T11:18:05.123Z,12.97
2023-03-28T11:20:31.075Z,13.00
2023-03-28T11:22:47.706Z,12.92
2023-03-28T11:25:09.818Z,12.84
2023-03-28T11:27:44.252Z,12.79
2023-03-28T11:29:56.546Z,12.83
2023-03-28T11:32:14.599Z,12.86
2023-03-28T11:34:25.866Z,12.88
2023-03-28T11:36:37.640Z,12.87
2023-03-28T11:38:44.374Z,12.82
2023-03-28T11:40:54.223Z,12.83
2023-03-28T11:43:13.714Z,12.87
2023-03-28T11:45:41.990Z,12.82
2023-03-28T11:48:03.849Z,12.81
2023-03-28T11:50:16.554Z,12.83
2023-03-28T11:52:47.646Z,12.83
2023-03-28T11:54:59.737Z,12.84
2023-03-28T11:57:08.272Z,12.84
2023-03-28T11:59:30.671Z,12.86
2023-03-28T12:01:36.796Z,12.86
2023-03-28T12:03:59.970Z,12.81
2023-03-28T12:06:10.458Z,12.79
2023-03-28T12:08:22.042Z,12.78
2023-03-28T12:10:28.647Z,12.83
2023-03-28T12:12:39.687Z,12.91
2023-03-28T12:14:52.471Z,13.01
2023-03-28T12:17:18.698Z,13.07
2023-03-28T12:19:34.101Z,13.10
2023-03-28T12:21:45.894Z,13.15
2023-03-28T12:24:05.943Z,13.19
2023-03-28T12:26:32.290Z,13.23
2023-03-28T12:28:42.366Z,13.26
2023-03-28T12:30:52.004Z,13.27
2023-03-28T12:33:06.796Z,13.25
2023-03-28T12:35:22.804Z,13.25
2023-03-28T12:37:50.960Z,13.21
2023-03-28T12:40:00.737Z,13.21
2023-03-28T12:42:10.306Z,13.16
2023-03-28T12:44:21.030Z,13.15
2023-03-28T12:46:31.059Z,13.14
2023-03-28T12:48:39.043Z,13.09
2023-03-28T12:50:48.831Z,13.12
2023-03-28T12:52:53.466Z,13.16
2023-03-28T12:55:31.693Z,13.23
2023-03-28T12:57:47.259Z,13.20
2023-03-28T13:00:26.389Z,13.16
2023-03-28T13:02:56.946Z,13.18
2023-03-28T13:05:12.431Z,13.20
2023-03-28T13:07:25.385Z,13.24
2023-03-28T13:09:43.674Z,13.26
2023-03-28T13:11:57.900Z,13.29
2023-03-28T13:14:10.510Z,13.30
2023-03-28T13:16:17.552Z,13.28
2023-03-28T13:18:34.074Z,13.30
2023-03-28T13:20:47.264Z,13.31
2023-03-28T13:22:53.965Z,13.31
2023-03-28T13:25:28.782Z,13.33
2023-03-28T13:27:35.723Z,13.40
2023-03-28T13:29:50.423Z,13.45
2023-03-28T13:32:06.921Z,13.50
2023-03-28T13:34:22.917Z,13.53
2023-03-28T13:36:33.788Z,13.56
2023-03-28T13:38:47.070Z,13.59
2023-03-28T13:40:54.808Z,13.67
2023-03-28T13:43:01.452Z,13.71
2023-03-28T13:45:16.344Z,13.73
2023-03-28T13:47:28.226Z,13.70
2023-03-28T13:49:43.257Z,13.72
2023-03-28T13:51:50.549Z,13.73
2023-03-28T13:53:54.637Z,13.75
2023-03-28T13:56:19.346Z,13.81
2023-03-28T13:58:25.227Z,13.86
2023-03-28T14:00:32.603Z,13.87
2023-03-28T14:02:43.799Z,13.89
2023-03-28T14:04:54.176Z,13.86
2023-03-28T14:06:58.341Z,13.91
2023-03-28T14:09:02.843Z,13.94
2023-03-28T14:11:07.622Z,13.98
2023-03-28T14:13:16.305Z,13.98
2023-03-28T14:15:26.050Z,13.99
2023-03-28T14:17:34.125Z,14.01
2023-03-28T14:19:41.498Z,14.04
2023-03-28T14:21:45.993Z,14.07
2023-03-28T14:23:59.818Z,14.11
2023-03-28T14:26:06.395Z,14.18
2023-03-28T14:28:10.428Z,14.24
2023-03-28T14:30:23.291Z,14.26
2023-03-28T14:32:30.692Z,14.33
2023-03-28T14:34:38.887Z,14.33
2023-03-28T14:36:59.358Z,14.20
2023-03-28T14:39:13.823Z,14.14
2023-03-28T14:41:21.840Z,14.09
2023-03-28T14:43:30.549Z,14.09
2023-03-28T14:45:40.194Z,14.11
2023-03-28T14:47:45.253Z,14.16
2023-03-28T14:49:48.829Z,14.14
2023-03-28T14:51:57.071Z,14.20
2023-03-28T14:54:00.807Z,14.26
2023-03-28T14:56:09.136Z,14.29
2023-03-28T14:58:15.020Z,14.29
2023-03-28T15:00:23.596Z,14.30
2023-03-28T15:02:33.705Z,14.31
2023-03-28T15:04:38.148Z,14.37
2023-03-28T15:06:41.986Z,14.45
2023-03-28T15:08:46.947Z,14.50
2023-03-28T15:10:54.352Z,14.52
2023-03-28T15:13:06.278Z,14.52
2023-03-28T15:15:17.095Z,14.47
2023-03-28T15:17:25.154Z,14.40
2023-03-28T15:19:36.578Z,14.37
2023-03-28T15:21:43.260Z,14.33
2023-03-28T15:23:52.177Z,14.33
2023-03-28T15:25:57.216Z,14.35
2023-03-28T15:28:05.073Z,14.33
2023-03-28T15:30:17.511Z,14.21
2023-03-28T15:32:23.433Z,14.15
2023-03-28T15:34:28.906Z,14.06
2023-03-28T15:36:35.807Z,13.97
2023-03-28T15:38:41.506Z,13.92
2023-03-28T15:40:47.671Z,13.93
2023-03-28T15:42:53.382Z,14.01
2023-03-28T15:45:17.295Z,14.10
2023-03-28T15:47:25.908Z,14.13
2023-03-28T15:49:36.236Z,14.13
2023-03-28T15:51:48.942Z,14.13
2023-03-28T15:53:53.860Z,14.14
2023-03-28T15:56:06.283Z,14.11
2023-03-28T15:58:14.178Z,14.09
2023-03-28T16:00:42.859Z,14.04
2023-03-28T16:02:47.278Z,14.04
2023-03-28T16:05:04.914Z,14.02
2023-03-28T16:07:15.610Z,14.02
2023-03-28T16:09:21.223Z,13.97
2023-03-28T16:11:27.817Z,13.90
2023-03-28T16:13:58.084Z,13.82
2023-03-28T16:16:31.495Z,13.77
2023-03-28T16:18:58.312Z,13.76
2023-03-28T16:21:03.118Z,13.77
2023-03-28T16:23:08.236Z,13.80
2023-03-28T16:25:12.625Z,13.83
2023-03-28T16:27:16.386Z,13.85
2023-03-28T16:29:20.357Z,13.87
2023-03-28T16:31:24.136Z,13.87
2023-03-28T16:33:27.822Z,13.85
2023-03-28T16:35:34.092Z,13.83
2023-03-28T16:37:39.265Z,13.82
2023-03-28T16:39:46.572Z,13.79
2023-03-28T16:41:50.332Z,13.76
2023-03-28T16:43:53.774Z,13.74
2023-03-28T16:45:57.591Z,13.70
2023-03-28T16:48:02.181Z,13.70
2023-03-28T16:50:09.253Z,13.73
2023-03-28T16:52:13.884Z,13.76
2023-03-28T16:54:18.306Z,13.77
2023-03-28T16:56:27.044Z,13.77
2023-03-28T16:58:31.335Z,13.74
2023-03-28T17:00:36.524Z,13.71
2023-03-28T17:02:40.275Z,13.71
2023-03-28T17:04:43.929Z,13.71
2023-03-28T17:06:49.420Z,13.72
2023-03-28T17:08:55.442Z,13.74
2023-03-28T17:11:02.741Z,13.75
2023-03-28T17:13:08.742Z,13.73
2023-03-28T17:15:13.648Z,13.72
2023-03-28T17:17:17.784Z,13.69
2023-03-28T17:19:23.269Z,13.63
2023-03-28T17:21:27.008Z,13.60
2023-03-28T17:23:31.068Z,13.56
2023-03-28T17:25:48.174Z,13.50
2023-03-28T17:27:56.164Z,13.42
2023-03-28T17:30:01.862Z,13.35
2023-03-28T17:32:06.572Z,13.31
2023-03-28T17:34:11.533Z,13.25
2023-03-28T17:36:20.952Z,13.19
2023-03-28T17:38:25.929Z,13.16
2023-03-28T17:40:30.322Z,13.14
2023-03-28T17:42:34.272Z,13.13
2023-03-28T17:44:38.230Z,13.12
2023-03-28T17:46:44.802Z,13.10
2023-03-28T17:48:48.857Z,13.09
2023-03-28T17:50:56.188Z,13.08
2023-03-28T17:53:00.877Z,13.05
2023-03-28T17:55:06.630Z,13.03
2023-03-28T17:57:10.539Z,13.02
2023-03-28T17:59:15.209Z,12.99
2023-03-28T18:01:19.935Z,12.97
2023-03-28T18:03:25.369Z,12.92
2023-03-28T18:05:54.673Z,12.88
2023-03-28T18:07:58.597Z,12.83
2023-03-28T18:10:04.184Z,12.80
2023-03-28T18:12:08.251Z,12.77
2023-03-28T18:14:12.700Z,12.73
2023-03-28T18:16:19.657Z,12.71
2023-03-28T18:18:25.216Z,12.69
2023-03-28T18:20:29.292Z,12.69
2023-03-28T18:22:33.202Z,12.69
2023-03-28T18:24:37.411Z,12.69
2023-03-28T18:26:41.471Z,12.69
2023-03-28T18:28:45.651Z,12.69
2023-03-28T18:30:49.685Z,12.69
2023-03-28T18:32:54.533Z,12.69
2023-03-28T18:35:00.216Z,12.68
2023-03-28T18:37:05.279Z,12.65
2023-03-28T18:39:10.500Z,12.63
2023-03-28T18:41:16.382Z,12.59
2023-03-28T18:43:21.656Z,12.56
2023-03-28T18:45:25.815Z,12.51
2023-03-28T18:47:30.437Z,12.47
2023-03-28T18:49:34.967Z,12.42
2023-03-28T18:51:42.841Z,12.39
2023-03-28T18:53:47.389Z,12.35
2023-03-28T18:55:52.614Z,12.32
2023-03-28T18:57:57.391Z,12.29
2023-03-28T19:00:01.541Z,12.24
2023-03-28T19:02:05.450Z,12.22
2023-03-28T19:04:09.741Z,12.17
2023-03-28T19:06:15.538Z,12.14
2023-03-28T19:08:22.314Z,12.11
2023-03-28T19:10:26.419Z,12.08
2023-03-28T19:12:30.156Z,12.05
2023-03-28T19:14:33.947Z,12.02
2023-03-28T19:16:37.566Z,11.99
2023-03-28T19:18:42.979Z,11.98
2023-03-28T19:20:51.352Z,11.96
2023-03-28T19:22:55.157Z,11.94
2023-03-28T19:25:01.392Z,11.92
2023-03-28T19:27:06.763Z,11.91
2023-03-28T19:29:11.084Z,11.90
2023-03-28T19:31:18.079Z,11.88
2023-03-28T19:33:21.797Z,11.87
2023-03-28T19:35:25.593Z,11.85
2023-03-28T19:37:29.409Z,11.83
2023-03-28T19:39:33.393Z,11.84
2023-03-28T19:41:38.621Z,11.83
2023-03-28T19:43:42.280Z,11.84
2023-03-28T19:45:46.384Z,11.84
2023-03-28T19:47:50.265Z,11.84
2023-03-28T19:49:54.014Z,11.84
2023-03-28T19:51:59.354Z,11.83
2023-03-28T19:54:03.476Z,11.82
2023-03-28T19:56:08.035Z,11.82
2023-03-28T19:58:13.419Z,11.80
2023-03-28T20:00:20.466Z,11.80
2023-03-28T20:02:24.480Z,11.81
2023-03-28T20:04:29.084Z,11.80
2023-03-28T20:06:33.654Z,11.79
2023-03-28T20:08:37.611Z,11.80
2023-03-28T20:10:42.291Z,11.79
2023-03-28T20:12:46.224Z,11.78
2023-03-28T20:14:51.865Z,11.79
2023-03-28T20:16:55.770Z,11.78
2023-03-28T20:18:59.905Z,11.77
2023-03-28T20:21:06.220Z,11.77
2023-03-28T20:23:11.901Z,11.77
2023-03-28T20:25:16.369Z,11.77
2023-03-28T20:27:20.652Z,11.77
2023-03-28T20:29:25.233Z,11.77
2023-03-28T20:31:31.140Z,11.75
2023-03-28T20:33:36.527Z,11.76
2023-03-28T20:35:42.108Z,11.74
2023-03-28T20:37:46.258Z,11.74
2023-03-28T20:39:52.232Z,11.72
2023-03-28T20:41:56.932Z,11.70
2023-03-28T20:44:04.001Z,11.68
2023-03-28T20:46:09.982Z,11.67
2023-03-28T20:48:17.706Z,11.67
2023-03-28T20:50:22.084Z,11.65
2023-03-28T20:52:26.893Z,11.64
2023-03-28T20:54:31.866Z,11.62
2023-03-28T20:56:36.852Z,11.62
2023-03-28T20:58:43.071Z,11.63
2023-03-28T21:00:49.665Z,11.60
2023-03-28T21:02:55.697Z,11.61
2023-03-28T21:05:02.718Z,11.60
2023-03-28T21:07:06.770Z,11.57
2023-03-28T21:09:14.639Z,11.58
2023-03-28T21:11:20.414Z,11.58
2023-03-28T21:13:24.526Z,11.57
2023-03-28T21:15:29.386Z,11.55
2023-03-28T21:17:33.920Z,11.54
2023-03-28T21:19:37.749Z,11.54
2023-03-28T21:21:43.583Z,11.52
2023-03-28T21:23:48.408Z,11.51
2023-03-28T21:25:53.937Z,11.51
2023-03-28T21:27:58.984Z,11.51
2023-03-28T21:30:08.011Z,11.50
2023-03-28T21:32:13.737Z,11.49
2023-03-28T21:34:18.165Z,11.48
2023-03-28T21:36:22.287Z,11.48
2023-03-28T21:38:27.917Z,11.46
2023-03-28T21:40:31.645Z,11.45
2023-03-28T21:42:35.232Z,11.44
2023-03-28T21:44:39.167Z,11.41
2023-03-28T21:46:43.187Z,11.39
2023-03-28T21:48:48.464Z,11.37
2023-03-28T21:50:54.712Z,11.35
2023-03-28T21:52:59.092Z,11.31
2023-03-28T21:55:04.664Z,11.30
2023-03-28T21:57:08.673Z,11.27
2023-03-28T21:59:12.569Z,11.25
2023-03-28T22:01:18.746Z,11.24
2023-03-28T22:03:23.548Z,11.22
2023-03-28T22:05:29.522Z,11.20
2023-03-28T22:07:34.253Z,11.18
2023-03-28T22:09:39.559Z,11.18
2023-03-28T22:11:46.343Z,11.17
2023-03-28T22:13:50.022Z,11.16
2023-03-28T22:15:58.191Z,11.14
2023-03-28T22:18:04.774Z,11.14
2023-03-28T22:20:09.529Z,11.13
2023-03-28T22:22:13.382Z,11.12
2023-03-28T22:24:17.632Z,11.11
2023-03-28T22:26:21.605Z,11.07
2023-03-28T22:28:26.921Z,11.05
2023-03-28T22:30:30.575Z,11.03
2023-03-28T22:32:34.266Z,10.99
2023-03-28T22:34:38.207Z,10.96
2023-03-28T22:36:42.640Z,10.94
2023-03-28T22:38:46.890Z,10.91
2023-03-28T22:40:51.096Z,10.91
2023-03-28T22:42:55.234Z,10.89
2023-03-28T22:45:00.379Z,10.89
2023-03-28T22:47:04.385Z,10.88
2023-03-28T22:49:09.353Z,10.88
2023-03-28T22:51:14.410Z,10.87
2023-03-28T22:53:20.333Z,10.87
2023-03-28T22:55:25.554Z,10.87
2023-03-28T22:57:29.370Z,10.87
2023-03-28T22:59:33.377Z,10.85
2023-03-28T23:01:38.708Z,10.86
2023-03-28T23:03:42.508Z,10.86
2023-03-28T23:05:46.289Z,10.85
2023-03-28T23:07:50.836Z,10.84
2023-03-28T23:09:54.599Z,10.84
2023-03-28T23:11:58.378Z,10.86
2023-03-28T23:14:03.575Z,10.87
2023-03-28T23:16:07.984Z,10.87
2023-03-28T23:18:13.066Z,10.87
2023-03-28T23:20:17.294Z,10.88
2023-03-28T23:22:21.876Z,10.88
2023-03-28T23:24:26.619Z,10.88
2023-03-28T23:26:30.314Z,10.88
2023-03-28T23:28:33.841Z,10.89
2023-03-28T23:30:39.393Z,10.89
2023-03-28T23:32:43.502Z,10.90
2023-03-28T23:34:49.308Z,10.91
2023-03-28T23:36:57.367Z,10.92
2023-03-28T23:39:01.148Z,10.93
2023-03-28T23:41:04.794Z,10.95
2023-03-28T23:43:09.106Z,10.97
2023-03-28T23:45:13.388Z,10.97
2023-03-28T23:47:17.167Z,10.99
2023-03-28T23:49:20.948Z,11.01
2023-03-28T23:51:26.305Z,11.04
2023-03-28T23:53:30.210Z,11.05
2023-03-28T23:55:34.821Z,11.06
2023-03-28T23:57:38.348Z,11.07
2023-03-28T23:59:42.368Z,11.06
